Time;durP1;ratioP1;P1;durP2;ratioP2;P2;SDS_P1;SDS_P2;PMS_P1;PMS_P2;Temp;Humidity;BMP_temperature;BMP_pressure;BME280_temperature;BME280_humidity;BME280_pressure;Samples;Min_cycle;Max_cycle;Signal;HPM_P1;HPM_P2
2022/10/20 00:01:19;;;;;;;3.63;1.80;;;;;;;;;;5006764;28;20061;-57
2022/10/20 00:03:44;;;;;;;3.55;1.88;;;;;;;;;;5013357;28;20039;-57
2022/10/20 00:06:21;;;;;;;3.38;1.80;;;;;;;;;;5004163;28;20052;-57
2022/10/20 00:08:47;;;;;;;3.30;1.75;;;;;;;;;;5010193;28;20053;-57
2022/10/20 00:11:15;;;;;;;4.15;1.92;;;;;;;;;;5010589;28;20034;-57
2022/10/20 00:13:43;;;;;;;4.40;2.20;;;;;;;;;;5011937;28;20045;-57
2022/10/20 00:16:08;;;;;;;3.85;2.08;;;;;;;;;;4997798;28;20414;-57
2022/10/20 00:18:34;;;;;;;6.35;1.95;;;;;;;;;;4997654;28;20062;-57
2022/10/20 00:20:59;;;;;;;4.55;2.03;;;;;;;;;;4998497;28;20050;-57
2022/10/20 00:23:25;;;;;;;6.65;2.00;;;;;;;;;;4999435;28;20034;-57
2022/10/20 00:26:08;;;;;;;4.13;1.92;;;;;;;;;;4997252;28;20389;-56
2022/10/20 00:28:33;;;;;;;4.85;1.90;;;;;;;;;;5004569;28;20510;-58
2022/10/20 00:30:59;;;;;;;3.45;1.83;;;;;;;;;;5011754;28;20125;-57
2022/10/20 00:33:25;;;;;;;4.53;2.33;;;;;;;;;;5011210;28;20437;-58
2022/10/20 00:35:50;;;;;;;3.92;1.95;;;;;;;;;;5012847;28;20033;-57
2022/10/20 00:38:16;;;;;;;3.60;1.77;;;;;;;;;;5001645;28;20405;-58
2022/10/20 00:40:41;;;;;;;3.90;2.00;;;;;;;;;;4996103;28;20085;-58
2022/10/20 00:43:12;;;;;;;4.65;2.55;;;;;;;;;;5007914;28;20074;-57
2022/10/20 00:45:37;;;;;;;4.05;1.67;;;;;;;;;;5011699;28;20042;-58
2022/10/20 00:48:11;;;;;;;3.38;1.88;;;;;;;;;;5012878;28;20120;-58
2022/10/20 00:50:40;;;;;;;3.70;1.85;;;;;;;;;;5006281;28;20044;-58
2022/10/20 00:53:05;;;;;;;4.20;1.90;;;;;;;;;;5011365;28;20120;-57
2022/10/20 00:55:33;;;;;;;4.05;2.03;;;;;;;;;;5011555;28;20108;-57
2022/10/20 00:58:00;;;;;;;3.17;1.90;;;;;;;;;;5004864;28;20034;-57
2022/10/20 01:00:26;;;;;;;4.13;1.80;;;;;;;;;;5016234;28;20057;-56
2022/10/20 01:02:53;;;;;;;3.60;1.92;;;;;;;;;;5013649;28;20105;-57
2022/10/20 01:05:19;;;;;;;4.63;1.90;;;;;;;;;;5014915;28;20091;-57
2022/10/20 01:07:45;;;;;;;4.38;1.90;;;;;;;;;;5016183;28;20116;-57
2022/10/20 01:10:11;;;;;;;3.78;2.00;;;;;;;;;;5014930;28;20033;-57
2022/10/20 01:12:42;;;;;;;3.80;2.10;;;;;;;;;;5011350;28;20064;-57
2022/10/20 01:15:08;;;;;;;3.72;2.00;;;;;;;;;;5015970;28;20416;-57
2022/10/20 01:17:41;;;;;;;4.18;1.80;;;;;;;;;;5006417;28;20471;-57
2022/10/20 01:20:36;;;;;;;3.03;1.52;;;;;;;;;;4998014;28;20053;-57
2022/10/20 01:23:25;;;;;;;2.92;1.77;;;;;;;;;;5014784;28;20034;-58
2022/10/20 01:26:12;;;;;;;3.65;1.90;;;;;;;;;;5003249;28;20053;-57
2022/10/20 01:28:40;;;;;;;5.43;2.00;;;;;;;;;;5005804;28;20422;-58
2022/10/20 01:31:16;;;;;;;3.70;1.80;;;;;;;;;;5010279;28;20033;-56
2022/10/20 01:34:02;;;;;;;3.75;1.85;;;;;;;;;;5003352;28;20084;-58
2022/10/20 01:36:38;;;;;;;3.33;1.60;;;;;;;;;;5017484;28;20046;-57
2022/10/20 01:39:10;;;;;;;3.70;2.00;;;;;;;;;;5008413;28;20520;-55
2022/10/20 01:41:45;;;;;;;4.13;2.10;;;;;;;;;;5014504;28;20074;-57
2022/10/20 01:44:12;;;;;;;3.58;1.63;;;;;;;;;;5008221;28;20022;-57
2022/10/20 01:46:39;;;;;;;3.53;1.75;;;;;;;;;;5023415;28;20434;-57
2022/10/20 01:49:06;;;;;;;4.25;2.10;;;;;;;;;;5010798;28;20036;-57
2022/10/20 01:51:31;;;;;;;3.20;1.58;;;;;;;;;;5015393;28;20049;-57
2022/10/20 01:53:57;;;;;;;3.35;1.95;;;;;;;;;;5010427;28;20506;-57
2022/10/20 01:56:33;;;;;;;3.88;2.00;;;;;;;;;;5005202;28;20036;-57
2022/10/20 01:59:21;;;;;;;3.20;1.95;;;;;;;;;;5015126;28;20038;-56
2022/10/20 02:01:53;;;;;;;2.80;1.80;;;;;;;;;;5011989;28;20061;-57
2022/10/20 02:04:21;;;;;;;3.58;1.80;;;;;;;;;;5015103;28;20042;-57
2022/10/20 02:06:55;;;;;;;3.50;1.70;;;;;;;;;;5013659;28;20084;-57
2022/10/20 02:09:54;;;;;;;2.97;1.75;;;;;;;;;;5012884;28;20042;-57
2022/10/20 02:12:33;;;;;;;3.28;1.60;;;;;;;;;;4983693;28;20057;-57
2022/10/20 02:14:59;;;;;;;3.33;1.70;;;;;;;;;;5007068;28;20045;-57
2022/10/20 02:17:26;;;;;;;3.53;2.05;;;;;;;;;;5009441;28;20038;-57
2022/10/20 02:19:52;;;;;;;3.83;2.05;;;;;;;;;;5013542;28;20072;-57
2022/10/20 02:22:18;;;;;;;3.42;1.90;;;;;;;;;;5014942;28;20125;-57
2022/10/20 02:24:45;;;;;;;3.20;2.00;;;;;;;;;;5013715;28;20041;-57
2022/10/20 02:27:15;;;;;;;3.45;1.90;;;;;;;;;;5013445;28;20057;-57
2022/10/20 02:29:54;;;;;;;4.05;2.10;;;;;;;;;;5013516;28;20085;-58
2022/10/20 02:32:20;;;;;;;3.50;2.00;;;;;;;;;;4987750;28;20092;-56
2022/10/20 02:34:46;;;;;;;3.65;1.90;;;;;;;;;;5013370;28;20539;-57
2022/10/20 02:37:12;;;;;;;3.75;2.03;;;;;;;;;;5014485;28;20116;-57
2022/10/20 02:39:37;;;;;;;3.45;1.67;;;;;;;;;;5014456;28;20066;-58
2022/10/20 02:42:02;;;;;;;4.45;1.90;;;;;;;;;;4997040;28;20109;-57
2022/10/20 02:44:28;;;;;;;4.25;1.98;;;;;;;;;;4998005;28;20049;-57
2022/10/20 02:46:53;;;;;;;3.20;1.83;;;;;;;;;;4996882;28;20458;-57
2022/10/20 02:49:20;;;;;;;3.50;1.90;;;;;;;;;;5000470;28;20030;-57
2022/10/20 02:51:45;;;;;;;4.40;2.03;;;;;;;;;;5000290;28;20486;-57
2022/10/20 02:54:11;;;;;;;3.00;1.95;;;;;;;;;;5010133;28;20044;-58
2022/10/20 02:56:36;;;;;;;3.00;2.10;;;;;;;;;;5011316;28;20030;-57
2022/10/20 02:59:01;;;;;;;4.10;2.10;;;;;;;;;;5014203;28;20076;-57
2022/10/20 03:01:27;;;;;;;3.53;2.03;;;;;;;;;;5013754;28;20454;-57
2022/10/20 03:03:57;;;;;;;3.38;1.98;;;;;;;;;;5014144;28;20050;-57
2022/10/20 03:06:22;;;;;;;3.67;2.10;;;;;;;;;;5010099;28;20054;-57
2022/10/20 03:08:48;;;;;;;3.10;1.85;;;;;;;;;;5013925;28;20025;-57
2022/10/20 03:11:13;;;;;;;4.00;2.10;;;;;;;;;;5006424;28;20057;-58
2022/10/20 03:13:39;;;;;;;3.80;2.22;;;;;;;;;;4995861;28;20042;-57
2022/10/20 03:16:04;;;;;;;3.55;2.00;;;;;;;;;;5012975;28;20057;-57
2022/10/20 03:18:30;;;;;;;3.15;1.83;;;;;;;;;;5002863;28;20117;-57
2022/10/20 03:20:55;;;;;;;2.65;1.65;;;;;;;;;;4995550;28;20046;-57
2022/10/20 03:23:21;;;;;;;3.22;1.67;;;;;;;;;;5007680;28;20034;-57
2022/10/20 03:25:46;;;;;;;3.53;1.77;;;;;;;;;;5013794;28;20049;-57
2022/10/20 03:28:12;;;;;;;4.20;1.92;;;;;;;;;;5010508;28;20065;-58
2022/10/20 03:30:38;;;;;;;3.20;1.70;;;;;;;;;;4999924;28;20092;-58
2022/10/20 03:33:03;;;;;;;4.72;1.90;;;;;;;;;;5004608;28;20050;-56
2022/10/20 03:35:28;;;;;;;3.88;1.95;;;;;;;;;;5007948;28;20034;-57
2022/10/20 03:37:54;;;;;;;3.92;2.17;;;;;;;;;;5006253;28;20060;-58
2022/10/20 03:40:19;;;;;;;3.30;1.58;;;;;;;;;;5011564;28;20473;-57
2022/10/20 03:42:45;;;;;;;2.90;1.80;;;;;;;;;;5013376;28;20053;-58
2022/10/20 03:45:10;;;;;;;3.65;1.92;;;;;;;;;;5013822;28;20030;-57
2022/10/20 03:47:36;;;;;;;3.60;1.83;;;;;;;;;;5013438;28;20070;-57
2022/10/20 03:50:02;;;;;;;3.38;1.90;;;;;;;;;;5013278;28;20385;-57
2022/10/20 03:52:28;;;;;;;2.78;1.63;;;;;;;;;;5013505;28;20028;-57
2022/10/20 03:54:53;;;;;;;3.60;1.90;;;;;;;;;;5013294;28;20042;-57
2022/10/20 03:57:19;;;;;;;2.92;1.63;;;;;;;;;;5013266;28;20040;-57
2022/10/20 03:59:45;;;;;;;2.75;1.73;;;;;;;;;;5013329;28;20030;-59
2022/10/20 04:02:29;;;;;;;2.88;1.70;;;;;;;;;;4997464;28;20067;-57
2022/10/20 04:04:54;;;;;;;3.33;2.00;;;;;;;;;;4982627;28;20041;-57
2022/10/20 04:07:20;;;;;;;3.63;2.05;;;;;;;;;;5012722;28;20497;-57
2022/10/20 04:09:45;;;;;;;3.83;2.10;;;;;;;;;;5011693;28;20042;-59
2022/10/20 04:12:10;;;;;;;3.10;1.90;;;;;;;;;;5001039;28;20061;-57
2022/10/20 04:14:36;;;;;;;2.88;1.80;;;;;;;;;;5004173;28;20037;-57
2022/10/20 04:17:01;;;;;;;3.47;2.20;;;;;;;;;;5000591;28;20541;-57
2022/10/20 04:19:26;;;;;;;3.97;1.90;;;;;;;;;;5003216;28;20030;-56
2022/10/20 04:21:52;;;;;;;3.67;1.90;;;;;;;;;;5003989;28;20125;-58
2022/10/20 04:24:17;;;;;;;2.83;1.63;;;;;;;;;;5001786;28;20033;-56
2022/10/20 04:26:42;;;;;;;3.55;1.80;;;;;;;;;;4994370;28;20114;-57
2022/10/20 04:29:08;;;;;;;2.90;1.75;;;;;;;;;;5006805;28;20397;-57
2022/10/20 04:31:33;;;;;;;3.85;1.90;;;;;;;;;;5013015;28;20121;-57
2022/10/20 04:33:59;;;;;;;2.70;1.60;;;;;;;;;;5001117;28;20401;-57
2022/10/20 04:36:24;;;;;;;3.05;1.70;;;;;;;;;;4997773;28;20101;-57
2022/10/20 04:38:49;;;;;;;3.38;1.92;;;;;;;;;;5012863;28;20038;-57
2022/10/20 04:41:15;;;;;;;3.50;1.80;;;;;;;;;;5006955;28;20034;-56
2022/10/20 04:43:40;;;;;;;3.88;1.88;;;;;;;;;;5012077;28;20042;-58
2022/10/20 04:46:06;;;;;;;4.00;2.03;;;;;;;;;;5016740;28;20061;-57
2022/10/20 04:48:31;;;;;;;2.65;1.40;;;;;;;;;;5016644;28;20445;-57
2022/10/20 04:51:08;;;;;;;3.72;1.80;;;;;;;;;;5016370;28;20064;-57
2022/10/20 04:53:34;;;;;;;4.30;2.00;;;;;;;;;;5016284;28;20045;-56
2022/10/20 04:56:00;;;;;;;2.95;1.75;;;;;;;;;;5016356;28;20539;-60
2022/10/20 04:58:25;;;;;;;3.65;1.70;;;;;;;;;;5016388;28;20034;-57
2022/10/20 05:00:51;;;;;;;2.67;1.75;;;;;;;;;;5016266;28;20068;-57
2022/10/20 05:03:18;;;;;;;3.53;2.00;;;;;;;;;;5004497;28;20450;-57
2022/10/20 05:05:44;;;;;;;3.60;1.83;;;;;;;;;;5016031;28;20128;-58
2022/10/20 05:08:09;;;;;;;3.17;1.90;;;;;;;;;;5016283;28;20036;-56
2022/10/20 05:10:35;;;;;;;3.17;1.77;;;;;;;;;;5016008;28;20042;-58
2022/10/20 05:13:00;;;;;;;3.65;1.70;;;;;;;;;;5008762;28;20034;-57
2022/10/20 05:15:25;;;;;;;3.33;1.77;;;;;;;;;;5005453;28;20048;-57
2022/10/20 05:17:51;;;;;;;3.85;1.92;;;;;;;;;;4999669;28;20093;-57
2022/10/20 05:20:16;;;;;;;2.88;1.85;;;;;;;;;;5002209;28;20481;-57
2022/10/20 05:22:41;;;;;;;3.38;1.60;;;;;;;;;;5004303;28;20076;-57
2022/10/20 05:25:07;;;;;;;3.97;1.98;;;;;;;;;;5002181;28;20061;-57
2022/10/20 05:27:32;;;;;;;3.45;1.67;;;;;;;;;;5015840;28;20034;-57
2022/10/20 05:29:58;;;;;;;2.95;1.77;;;;;;;;;;5015501;28;20434;-57
2022/10/20 05:32:23;;;;;;;2.97;1.63;;;;;;;;;;5015645;28;20048;-59
2022/10/20 05:34:49;;;;;;;3.85;1.65;;;;;;;;;;5011917;28;20440;-58
2022/10/20 05:37:14;;;;;;;5.45;1.85;;;;;;;;;;5015627;28;20021;-57
2022/10/20 05:39:39;;;;;;;2.78;1.65;;;;;;;;;;5015701;28;20037;-57
2022/10/20 05:42:05;;;;;;;2.78;1.42;;;;;;;;;;5015484;28;20486;-56
2022/10/20 05:44:30;;;;;;;3.63;1.80;;;;;;;;;;5014379;28;20389;-57
2022/10/20 05:46:56;;;;;;;2.83;1.67;;;;;;;;;;5015394;28;20097;-57
2022/10/20 05:49:22;;;;;;;4.88;1.70;;;;;;;;;;5015307;28;20474;-57
2022/10/20 05:51:48;;;;;;;3.22;1.83;;;;;;;;;;5015502;28;20038;-57
2022/10/20 05:54:14;;;;;;;2.88;1.70;;;;;;;;;;5015348;28;20403;-57
2022/10/20 05:56:39;;;;;;;2.72;1.70;;;;;;;;;;5014059;28;20049;-58
2022/10/20 05:59:04;;;;;;;3.10;1.70;;;;;;;;;;5015081;28;20034;-57
2022/10/20 06:01:46;;;;;;;3.28;1.85;;;;;;;;;;5015271;28;20117;-57
2022/10/20 06:04:13;;;;;;;2.80;1.70;;;;;;;;;;5014914;28;20046;-57
2022/10/20 06:06:38;;;;;;;3.10;1.88;;;;;;;;;;5014996;28;20050;-58
2022/10/20 06:09:06;;;;;;;3.55;1.80;;;;;;;;;;5014633;28;20042;-58
2022/10/20 06:11:32;;;;;;;2.60;1.52;;;;;;;;;;4990923;28;20136;-56
2022/10/20 06:13:57;;;;;;;2.70;1.63;;;;;;;;;;5008950;28;20502;-57
2022/10/20 06:16:25;;;;;;;2.95;1.70;;;;;;;;;;5014835;28;20068;-57
2022/10/20 06:18:51;;;;;;;2.67;1.70;;;;;;;;;;5015019;28;20037;-56
2022/10/20 06:21:18;;;;;;;3.67;1.92;;;;;;;;;;4999906;28;20070;-58
2022/10/20 06:23:44;;;;;;;3.13;1.80;;;;;;;;;;5005020;28;20169;-57
2022/10/20 06:26:11;;;;;;;3.03;1.52;;;;;;;;;;5010141;28;20156;-57
2022/10/20 06:28:38;;;;;;;3.58;1.90;;;;;;;;;;5014619;28;20037;-58
2022/10/20 06:31:17;;;;;;;3.00;1.90;;;;;;;;;;5013352;28;20492;-57
2022/10/20 06:33:43;;;;;;;2.67;1.70;;;;;;;;;;5004240;28;20060;-58
2022/10/20 06:36:08;;;;;;;2.97;1.70;;;;;;;;;;4998068;28;20038;-57
2022/10/20 06:38:34;;;;;;;2.80;1.63;;;;;;;;;;5008071;28;20033;-57
2022/10/20 06:41:03;;;;;;;3.10;1.70;;;;;;;;;;5014338;28;20088;-58
2022/10/20 06:43:29;;;;;;;3.85;2.13;;;;;;;;;;5014451;28;20029;-57
2022/10/20 06:46:00;;;;;;;3.13;1.50;;;;;;;;;;5014361;28;20037;-57
2022/10/20 06:48:26;;;;;;;3.60;1.95;;;;;;;;;;5014444;28;20038;-57
2022/10/20 06:50:56;;;;;;;4.05;2.05;;;;;;;;;;5014195;28;20048;-57
2022/10/20 06:53:21;;;;;;;4.07;2.10;;;;;;;;;;5014292;28;20117;-57
2022/10/20 06:56:08;;;;;;;2.80;1.60;;;;;;;;;;5013756;28;20066;-57
2022/10/20 06:58:35;;;;;;;2.78;1.75;;;;;;;;;;4996862;28;20089;-57
2022/10/20 07:01:07;;;;;;;2.50;1.65;;;;;;;;;;5007052;28;20080;-66
2022/10/20 07:03:34;;;;;;;2.83;1.50;;;;;;;;;;5013685;28;20049;-57
2022/10/20 07:06:00;;;;;;;5.57;1.83;;;;;;;;;;5011935;28;20357;-57
2022/10/20 07:08:27;;;;;;;3.00;1.77;;;;;;;;;;5005669;28;20038;-57
2022/10/20 07:11:08;;;;;;;5.05;1.60;;;;;;;;;;5010884;28;20080;-59
2022/10/20 07:13:35;;;;;;;4.65;1.60;;;;;;;;;;5012952;28;20050;-57
2022/10/20 07:16:01;;;;;;;3.33;1.90;;;;;;;;;;5012552;28;20057;-57
2022/10/20 07:18:28;;;;;;;3.60;1.83;;;;;;;;;;5014011;28;20061;-58
2022/10/20 07:21:20;;;;;;;3.65;1.85;;;;;;;;;;5013674;28;20473;-57
2022/10/20 07:23:46;;;;;;;3.10;1.75;;;;;;;;;;5008896;28;20065;-57
2022/10/20 07:26:14;;;;;;;3.28;1.83;;;;;;;;;;5006269;28;20046;-57
2022/10/20 07:28:44;;;;;;;4.00;1.90;;;;;;;;;;5010349;28;20053;-57
2022/10/20 07:31:34;;;;;;;3.33;1.50;;;;;;;;;;5006331;28;20034;-58
2022/10/20 07:34:00;;;;;;;2.83;1.50;;;;;;;;;;5000965;28;20146;-48
2022/10/20 07:36:27;;;;;;;3.17;1.77;;;;;;;;;;5008011;28;20069;-58
2022/10/20 07:38:55;;;;;;;4.75;1.88;;;;;;;;;;5012626;28;20477;-58
2022/10/20 07:41:21;;;;;;;2.72;1.50;;;;;;;;;;5013751;28;20034;-60
2022/10/20 07:43:46;;;;;;;3.55;1.77;;;;;;;;;;5013356;28;20049;-57
2022/10/20 07:46:12;;;;;;;3.92;1.85;;;;;;;;;;5002121;28;20486;-59
2022/10/20 07:48:38;;;;;;;4.88;1.90;;;;;;;;;;5006816;28;20401;-58
2022/10/20 07:51:23;;;;;;;3.70;1.65;;;;;;;;;;5007547;28;20039;-59
2022/10/20 07:54:06;;;;;;;3.45;1.92;;;;;;;;;;5033642;28;20049;-57
2022/10/20 07:56:42;;;;;;;3.92;1.70;;;;;;;;;;5017135;28;20041;-60
2022/10/20 07:59:08;;;;;;;3.67;1.88;;;;;;;;;;4995990;28;20065;-60
2022/10/20 08:01:34;;;;;;;2.97;1.70;;;;;;;;;;5002840;28;20094;-61
2022/10/20 08:03:59;;;;;;;3.42;1.85;;;;;;;;;;5010498;28;20114;-62
2022/10/20 08:06:25;;;;;;;4.45;2.10;;;;;;;;;;5012758;28;20156;-63
2022/10/20 08:08:51;;;;;;;3.42;1.90;;;;;;;;;;5009208;28;20034;-63
2022/10/20 08:11:16;;;;;;;3.70;1.80;;;;;;;;;;5012075;28;20104;-68
2022/10/20 08:13:43;;;;;;;3.20;1.70;;;;;;;;;;5000732;28;20793;-60
2022/10/20 08:16:13;;;;;;;3.85;1.98;;;;;;;;;;5014993;28;20037;-63
2022/10/20 08:18:39;;;;;;;4.60;1.75;;;;;;;;;;5009907;28;20044;-68
2022/10/20 08:21:22;;;;;;;5.13;1.90;;;;;;;;;;5024200;28;20116;-63
2022/10/20 08:23:48;;;;;;;3.53;1.50;;;;;;;;;;5004005;28;20416;-66
2022/10/20 08:26:22;;;;;;;4.03;1.80;;;;;;;;;;5012867;28;20112;-63
2022/10/20 08:28:48;;;;;;;4.60;2.20;;;;;;;;;;5021778;28;20072;-61
2022/10/20 08:31:14;;;;;;;4.32;1.80;;;;;;;;;;5038263;28;20125;-63
2022/10/20 08:33:39;;;;;;;3.67;1.85;;;;;;;;;;5014136;28;20105;-62
2022/10/20 08:36:08;;;;;;;4.32;1.77;;;;;;;;;;5010859;28;20045;-60
2022/10/20 08:38:35;;;;;;;3.45;1.80;;;;;;;;;;5030327;28;20038;-61
2022/10/20 08:41:02;;;;;;;3.53;1.95;;;;;;;;;;5009865;28;20592;-61
2022/10/20 08:43:28;;;;;;;6.20;2.20;;;;;;;;;;5016029;28;20563;-68
2022/10/20 08:45:53;;;;;;;2.80;1.60;;;;;;;;;;5012415;28;20132;-67
2022/10/20 08:48:31;;;;;;;3.10;1.90;;;;;;;;;;5004752;28;20454;-65
2022/10/20 08:50:57;;;;;;;7.95;1.73;;;;;;;;;;5012827;28;20065;-65
2022/10/20 08:53:24;;;;;;;5.40;2.05;;;;;;;;;;5011411;28;20119;-64
2022/10/20 08:55:50;;;;;;;5.45;2.28;;;;;;;;;;5007758;28;20038;-62
2022/10/20 08:58:20;;;;;;;6.57;1.67;;;;;;;;;;5000840;28;20042;-61
2022/10/20 09:00:46;;;;;;;5.47;2.00;;;;;;;;;;5010534;28;20096;-59
2022/10/20 09:03:16;;;;;;;3.72;1.80;;;;;;;;;;5011446;28;20030;-59
2022/10/20 09:05:44;;;;;;;4.00;2.10;;;;;;;;;;5012631;28;20065;-60
2022/10/20 09:08:10;;;;;;;6.95;1.90;;;;;;;;;;4999276;28;20108;-59
2022/10/20 09:10:37;;;;;;;8.50;1.95;;;;;;;;;;5013434;28;20565;-61
2022/10/20 09:13:24;;;;;;;6.80;2.10;;;;;;;;;;4994683;28;20057;-66
2022/10/20 09:15:53;;;;;;;4.63;2.10;;;;;;;;;;4998849;28;20516;-60
2022/10/20 09:18:19;;;;;;;4.15;2.13;;;;;;;;;;5001268;28;20042;-60
2022/10/20 09:20:53;;;;;;;3.30;1.83;;;;;;;;;;5016743;28;20032;-60
2022/10/20 09:23:22;;;;;;;4.53;2.10;;;;;;;;;;5004343;28;20038;-60
2022/10/20 09:25:50;;;;;;;7.15;2.03;;;;;;;;;;5011433;28;20038;-61
2022/10/20 09:28:26;;;;;;;5.88;2.03;;;;;;;;;;5010176;28;20038;-60
2022/10/20 09:30:53;;;;;;;5.63;1.95;;;;;;;;;;5010274;28;20124;-61
2022/10/20 09:33:33;;;;;;;7.53;2.10;;;;;;;;;;5007501;28;20034;-60
2022/10/20 09:36:29;;;;;;;5.43;1.63;;;;;;;;;;5009242;28;20052;-60
2022/10/20 09:38:54;;;;;;;6.78;2.10;;;;;;;;;;5002487;28;20044;-61
2022/10/20 09:41:25;;;;;;;4.25;1.65;;;;;;;;;;5009106;28;20034;-60
2022/10/20 09:43:54;;;;;;;3.45;1.80;;;;;;;;;;5011384;28;20397;-60
2022/10/20 09:46:25;;;;;;;6.22;1.70;;;;;;;;;;5008963;28;20030;-61
2022/10/20 09:48:51;;;;;;;4.65;1.98;;;;;;;;;;5011206;28;20046;-60
2022/10/20 09:51:24;;;;;;;6.10;1.60;;;;;;;;;;5006466;28;20046;-59
2022/10/20 09:54:05;;;;;;;4.03;1.80;;;;;;;;;;5002226;28;20041;-67
2022/10/20 09:56:39;;;;;;;5.65;2.03;;;;;;;;;;5005523;28;20025;-60
2022/10/20 09:59:25;;;;;;;4.72;1.50;;;;;;;;;;5010062;28;20041;-60
2022/10/20 10:01:57;;;;;;;3.58;1.85;;;;;;;;;;5002719;28;20034;-61
2022/10/20 10:04:34;;;;;;;7.47;1.88;;;;;;;;;;5009180;28;20037;-60
2022/10/20 10:07:00;;;;;;;6.18;1.80;;;;;;;;;;5009471;28;20054;-60
2022/10/20 10:09:34;;;;;;;3.28;1.70;;;;;;;;;;5011035;28;20045;-60
2022/10/20 10:12:02;;;;;;;4.43;1.90;;;;;;;;;;5005180;28;20473;-67
2022/10/20 10:14:29;;;;;;;4.85;1.80;;;;;;;;;;5026840;28;20041;-59
2022/10/20 10:16:54;;;;;;;4.40;1.60;;;;;;;;;;5008983;28;20417;-60
2022/10/20 10:19:25;;;;;;;5.55;1.63;;;;;;;;;;5002560;28;20123;-60
2022/10/20 10:21:54;;;;;;;12.00;1.83;;;;;;;;;;4995966;28;20405;-60
2022/10/20 10:24:47;;;;;;;3.65;1.92;;;;;;;;;;5018182;28;20373;-60
2022/10/20 10:27:24;;;;;;;3.73;1.67;;;;;;;;;;4992150;28;20478;-60
2022/10/20 10:29:51;;;;;;;4.55;1.83;;;;;;;;;;4993168;28;20035;-61
2022/10/20 10:32:17;;;;;;;3.78;1.90;;;;;;;;;;5022753;28;20133;-61
2022/10/20 10:35:13;;;;;;;3.55;1.52;;;;;;;;;;5007774;28;20052;-59
2022/10/20 10:37:40;;;;;;;3.72;1.50;;;;;;;;;;5003750;28;20029;-59
2022/10/20 10:40:17;;;;;;;4.50;1.75;;;;;;;;;;5008265;28;20242;-60
2022/10/20 10:43:10;;;;;;;5.38;1.98;;;;;;;;;;5008087;28;20513;-60
2022/10/20 10:45:56;;;;;;;2.65;1.60;;;;;;;;;;4994978;28;20037;-58
2022/10/20 10:48:41;;;;;;;3.28;1.88;;;;;;;;;;4999797;28;20176;-59
2022/10/20 10:51:32;;;;;;;3.50;1.65;;;;;;;;;;4997804;28;20035;-59
2022/10/20 10:54:07;;;;;;;2.88;1.48;;;;;;;;;;4995932;28;20038;-58
2022/10/20 10:56:42;;;;;;;3.65;1.60;;;;;;;;;;5007343;28;20029;-59
2022/10/20 10:59:12;;;;;;;2.83;1.33;;;;;;;;;;4994049;28;20053;-59
2022/10/20 11:01:41;;;;;;;2.88;1.50;;;;;;;;;;4999256;28;20049;-59
2022/10/20 11:04:31;;;;;;;4.43;2.00;;;;;;;;;;5005574;28;20116;-61
2022/10/20 11:07:26;;;;;;;3.53;1.70;;;;;;;;;;4997262;28;20537;-64
2022/10/20 11:10:20;;;;;;;5.85;1.55;;;;;;;;;;5005590;28;20441;-58
2022/10/20 11:12:56;;;;;;;6.05;1.80;;;;;;;;;;4998027;28;20084;-57
2022/10/20 11:15:30;;;;;;;4.45;1.70;;;;;;;;;;5007534;28;20159;-58
2022/10/20 11:18:06;;;;;;;4.65;1.67;;;;;;;;;;5010549;28;20057;-59
2022/10/20 11:20:37;;;;;;;6.40;1.63;;;;;;;;;;4998604;28;20499;-64
2022/10/20 11:23:15;;;;;;;6.50;1.83;;;;;;;;;;5011841;28;20559;-58
2022/10/20 11:25:40;;;;;;;3.45;1.40;;;;;;;;;;4998977;28;20367;-59
2022/10/20 11:28:22;;;;;;;6.03;1.95;;;;;;;;;;5010441;28;20092;-65
2022/10/20 11:30:49;;;;;;;4.35;1.58;;;;;;;;;;5004514;28;20033;-61
2022/10/20 11:33:18;;;;;;;12.15;2.13;;;;;;;;;;5009917;28;20398;-60
2022/10/20 11:35:52;;;;;;;11.45;1.80;;;;;;;;;;5007772;28;20041;-60
2022/10/20 11:38:32;;;;;;;5.35;2.08;;;;;;;;;;5009871;28;20038;-61
2022/10/20 11:41:07;;;;;;;4.57;1.77;;;;;;;;;;4999135;28;20520;-61
2022/10/20 11:43:40;;;;;;;3.70;1.48;;;;;;;;;;5006239;28;20378;-60
2022/10/20 11:46:20;;;;;;;5.22;1.67;;;;;;;;;;5008984;28;20037;-60
2022/10/20 11:48:55;;;;;;;7.10;1.73;;;;;;;;;;4995796;28;20064;-61
2022/10/20 11:51:29;;;;;;;4.63;1.73;;;;;;;;;;5009289;28;20049;-60
2022/10/20 11:54:13;;;;;;;4.70;1.75;;;;;;;;;;5007878;28;20037;-61
2022/10/20 11:56:56;;;;;;;7.85;1.60;;;;;;;;;;5011021;28;20042;-62
2022/10/20 11:59:40;;;;;;;5.00;2.15;;;;;;;;;;4968881;28;20045;-64
2022/10/20 12:03:03;;;;;;;6.75;1.80;;;;;;;;;;5002746;28;20485;-62
2022/10/20 12:05:33;;;;;;;28.63;5.95;;;;;;;;;;4998499;28;20041;-62
2022/10/20 12:08:10;;;;;;;25.92;5.07;;;;;;;;;;4998153;28;20048;-60
2022/10/20 12:11:03;;;;;;;13.93;3.40;;;;;;;;;;4998262;28;20054;-60
2022/10/20 12:13:47;;;;;;;11.60;3.33;;;;;;;;;;5005234;28;20038;-63
2022/10/20 12:16:50;;;;;;;20.65;3.65;;;;;;;;;;5013597;28;20397;-60
2022/10/20 12:19:19;;;;;;;13.68;2.80;;;;;;;;;;4999733;28;20046;-62
2022/10/20 12:22:13;;;;;;;8.95;3.00;;;;;;;;;;5006060;28;20042;-60
2022/10/20 12:24:38;;;;;;;;;;;;;;;;;;5001626;28;20044;-62
2022/10/20 12:27:09;;;;;;;6.43;2.35;;;;;;;;;;4994199;28;20336;-62
2022/10/20 12:29:35;;;;;;;9.88;2.42;;;;;;;;;;5008462;28;20129;-63
2022/10/20 12:32:25;;;;;;;10.45;2.50;;;;;;;;;;5004103;28;20175;-63
2022/10/20 12:35:03;;;;;;;10.15;2.83;;;;;;;;;;5001664;28;20065;-60
2022/10/20 12:37:29;;;;;;;5.90;2.00;;;;;;;;;;5009998;28;20030;-59
2022/10/20 12:39:57;;;;;;;5.10;1.92;;;;;;;;;;5004710;28;20811;-61
2022/10/20 12:42:23;;;;;;;8.52;2.10;;;;;;;;;;5000791;28;20033;-61
2022/10/20 12:44:49;;;;;;;6.72;2.00;;;;;;;;;;4998955;28;20386;-62
2022/10/20 12:47:26;;;;;;;6.10;2.10;;;;;;;;;;5022758;28;20493;-64
2022/10/20 12:50:02;;;;;;;5.07;1.58;;;;;;;;;;5005387;28;20029;-61
2022/10/20 12:52:34;;;;;;;10.65;2.17;;;;;;;;;;5001550;28;20034;-64
2022/10/20 12:55:06;;;;;;;9.43;1.98;;;;;;;;;;5010702;28;20079;-70
2022/10/20 12:57:43;;;;;;;6.00;2.00;;;;;;;;;;5024730;28;20049;-62
2022/10/20 13:00:18;;;;;;;6.63;2.22;;;;;;;;;;4994383;28;20048;-68
2022/10/20 13:02:51;;;;;;;4.63;1.73;;;;;;;;;;5003066;28;20038;-65
2022/10/20 13:05:17;;;;;;;;;;;;;;;;;;5028520;28;20033;-67
2022/10/20 13:07:45;;;;;;;4.57;1.80;;;;;;;;;;4998461;28;19928;-65
2022/10/20 13:10:25;;;;;;;5.93;1.80;;;;;;;;;;5018139;28;20393;-61
2022/10/20 13:12:52;;;;;;;6.03;1.67;;;;;;;;;;5010917;28;20676;-64
2022/10/20 13:15:20;;;;;;;6.35;1.65;;;;;;;;;;5008665;28;20394;-60
2022/10/20 13:17:48;;;;;;;13.68;2.70;;;;;;;;;;5023770;28;20038;-63
2022/10/20 13:20:26;;;;;;;6.22;1.52;;;;;;;;;;4992300;28;20490;-62
2022/10/20 13:22:52;;;;;;;5.28;1.60;;;;;;;;;;4994813;28;20121;-62
2022/10/20 13:25:21;;;;;;;6.70;1.55;;;;;;;;;;5011694;28;20045;-62
2022/10/20 13:27:48;;;;;;;3.72;1.58;;;;;;;;;;5010867;28;20401;-64
2022/10/20 13:30:20;;;;;;;7.32;1.63;;;;;;;;;;5011255;28;20046;-63
2022/10/20 13:33:16;;;;;;;4.95;1.30;;;;;;;;;;5010728;28;20212;-66
2022/10/20 13:35:48;;;;;;;3.22;1.35;;;;;;;;;;5003308;28;20037;-62
2022/10/20 13:38:21;;;;;;;4.38;1.40;;;;;;;;;;5007073;28;20104;-64
2022/10/20 13:40:46;;;;;;;;;;;;;;;;;;5017699;28;20089;-63
2022/10/20 13:43:37;;;;;;;3.53;1.55;;;;;;;;;;5011296;28;19917;-62
2022/10/20 13:46:20;;;;;;;3.05;1.42;;;;;;;;;;5005386;28;20034;-63
2022/10/20 13:48:58;;;;;;;5.00;1.50;;;;;;;;;;4995866;28;20382;-62
2022/10/20 13:51:28;;;;;;;2.97;1.23;;;;;;;;;;5012062;28;20077;-62
2022/10/20 13:53:57;;;;;;;4.97;1.40;;;;;;;;;;5004691;28;20045;-63
2022/10/20 13:56:33;;;;;;;10.68;1.60;;;;;;;;;;5003914;28;20371;-62
2022/10/20 13:59:03;;;;;;;4.07;1.35;;;;;;;;;;5010399;28;20030;-62
2022/10/20 14:01:30;;;;;;;3.45;1.30;;;;;;;;;;5011434;28;20084;-66
2022/10/20 14:03:56;;;;;;;6.30;1.67;;;;;;;;;;5010482;28;20037;-63
2022/10/20 14:06:29;;;;;;;4.68;1.60;;;;;;;;;;5004917;28;20049;-64
2022/10/20 14:08:56;;;;;;;5.00;1.38;;;;;;;;;;4998534;28;20438;-63
2022/10/20 14:11:22;;;;;;;8.80;1.77;;;;;;;;;;5010437;28;20033;-62
2022/10/20 14:13:48;;;;;;;6.40;1.80;;;;;;;;;;4997474;28;20073;-62
2022/10/20 14:16:21;;;;;;;3.65;1.40;;;;;;;;;;5010064;28;20072;-63
2022/10/20 14:19:08;;;;;;;;;;;;;;;;;;4991912;28;20042;-59
2022/10/20 14:21:45;;;;;;;5.32;1.40;;;;;;;;;;5009751;28;19917;-62
2022/10/20 14:24:22;;;;;;;16.17;2.08;;;;;;;;;;5001729;28;20053;-61
2022/10/20 14:26:48;;;;;;;4.68;1.50;;;;;;;;;;5007083;28;20508;-63
2022/10/20 14:29:15;;;;;;;4.30;1.50;;;;;;;;;;5008839;28;20034;-63
2022/10/20 14:31:41;;;;;;;13.73;1.77;;;;;;;;;;5002104;28;20042;-61
2022/10/20 14:34:17;;;;;;;6.38;1.63;;;;;;;;;;5005622;28;20350;-61
2022/10/20 14:36:43;;;;;;;6.00;1.75;;;;;;;;;;5009890;28;21423;-67
2022/10/20 14:39:19;;;;;;;5.75;1.40;;;;;;;;;;5010731;28;20065;-61
2022/10/20 14:41:45;;;;;;;5.60;1.48;;;;;;;;;;5005969;28;20041;-63
2022/10/20 14:44:19;;;;;;;5.25;1.33;;;;;;;;;;5009467;28;20045;-61
2022/10/20 14:46:45;;;;;;;3.85;1.30;;;;;;;;;;4997208;28;20107;-67
2022/10/20 14:49:14;;;;;;;6.68;1.98;;;;;;;;;;5009565;28;20073;-61
2022/10/20 14:51:46;;;;;;;5.93;1.67;;;;;;;;;;5009842;28;20389;-62
2022/10/20 14:54:18;;;;;;;3.63;1.23;;;;;;;;;;4995854;28;20030;-61
2022/10/20 14:57:06;;;;;;;5.70;1.60;;;;;;;;;;5010519;28;20038;-62
2022/10/20 14:59:35;;;;;;;5.20;1.50;;;;;;;;;;4999537;28;20049;-61
2022/10/20 15:02:18;;;;;;;2.85;1.35;;;;;;;;;;5003027;28;20136;-61
2022/10/20 15:04:48;;;;;;;2.83;1.20;;;;;;;;;;5010493;28;20034;-62